createdAt,value
2017-07-22T00:00:19.916Z,69.10
2017-07-22T00:02:48.103Z,68.60
2017-07-22T00:05:15.534Z,68.70
2017-07-22T00:07:42.956Z,68.90
2017-07-22T00:10:10.382Z,68.80
2017-07-22T00:12:37.804Z,68.70
2017-07-22T00:15:06.012Z,69.10
2017-07-22T00:17:33.445Z,69.10
2017-07-22T00:20:01.636Z,70.30
2017-07-22T00:22:29.071Z,69.50
2017-07-22T00:24:57.263Z,69.70
2017-07-22T00:27:24.685Z,69.70
2017-07-22T00:29:52.107Z,70.10
2017-07-22T00:32:19.546Z,71.10
2017-07-22T00:34:53.507Z,70.40
2017-07-22T00:37:20.912Z,70.50
2017-07-22T00:39:48.343Z,70.70
2017-07-22T00:42:15.767Z,70.60
2017-07-22T00:44:43.180Z,70.50
2017-07-22T00:47:10.624Z,70.70
2017-07-22T00:49:38.057Z,71.10
2017-07-22T00:52:06.242Z,71.70
2017-07-22T00:54:33.665Z,71.70
2017-07-22T00:57:01.097Z,72.00
2017-07-22T00:59:28.533Z,71.90
2017-07-22T01:01:56.045Z,72.00
2017-07-22T01:04:23.449Z,72.20
2017-07-22T01:06:50.864Z,72.50
2017-07-22T01:09:19.066Z,72.70
2017-07-22T01:11:46.489Z,72.70
2017-07-22T01:14:14.687Z,72.70
2017-07-22T01:16:42.133Z,72.70
2017-07-22T01:19:09.541Z,72.70
2017-07-22T01:21:36.960Z,72.70
2017-07-22T01:24:04.416Z,72.70
2017-07-22T01:26:31.835Z,72.80
2017-07-22T01:29:00.029Z,73.40
2017-07-22T01:31:27.525Z,73.40
2017-07-22T01:33:54.947Z,73.50
2017-07-22T01:36:22.392Z,73.70
2017-07-22T01:38:50.580Z,74.70
2017-07-22T01:41:17.997Z,74.60
2017-07-22T01:43:45.425Z,74.00
2017-07-22T01:46:12.846Z,74.00
2017-07-22T01:48:40.270Z,74.10
2017-07-22T01:51:08.464Z,73.90
2017-07-22T01:53:36.101Z,73.80
2017-07-22T01:56:04.287Z,73.70
2017-07-22T01:58:31.721Z,73.70
2017-07-22T02:00:59.143Z,73.80
2017-07-22T02:03:26.583Z,73.70
2017-07-22T02:05:53.996Z,74.00
2017-07-22T02:08:21.444Z,74.20
2017-07-22T02:10:48.860Z,74.40
2017-07-22T02:13:16.291Z,74.60
2017-07-22T02:15:43.736Z,74.80
2017-07-22T02:18:11.160Z,75.00
2017-07-22T02:20:38.577Z,75.10
2017-07-22T02:23:05.998Z,75.40
2017-07-22T02:25:33.422Z,75.10
2017-07-22T02:28:00.847Z,75.10
2017-07-22T02:30:28.262Z,74.80
2017-07-22T02:32:56.453Z,75.00
2017-07-22T02:35:23.876Z,74.90
2017-07-22T02:37:51.304Z,75.10
2017-07-22T02:40:18.758Z,75.50
2017-07-22T02:42:46.176Z,75.80
2017-07-22T02:45:13.600Z,75.70
2017-07-22T02:47:41.025Z,76.00
2017-07-22T02:50:08.462Z,76.00
2017-07-22T02:52:35.893Z,76.30
2017-07-22T02:55:04.081Z,77.00
2017-07-22T02:57:31.506Z,77.00
2017-07-22T02:59:59.697Z,77.20
2017-07-22T03:02:27.116Z,77.20
2017-07-22T03:04:54.549Z,77.50
2017-07-22T03:07:21.980Z,77.50
2017-07-22T03:09:49.410Z,77.70
2017-07-22T03:12:16.834Z,77.70
2017-07-22T03:14:44.254Z,77.60
2017-07-22T03:17:11.703Z,77.70
2017-07-22T03:19:39.141Z,78.30
2017-07-22T03:22:07.363Z,78.80
2017-07-22T03:24:34.800Z,78.80
2017-07-22T03:27:02.221Z,79.10
2017-07-22T03:29:30.410Z,79.70
2017-07-22T03:31:57.840Z,79.70
2017-07-22T03:34:25.261Z,80.40
2017-07-22T03:36:52.720Z,80.70
2017-07-22T03:39:20.145Z,80.60
2017-07-22T03:41:47.564Z,80.80
2017-07-22T03:44:15.785Z,81.10
2017-07-22T03:46:43.212Z,81.10
2017-07-22T03:49:10.633Z,81.20
2017-07-22T03:51:38.058Z,81.40
2017-07-22T03:54:05.494Z,81.80
2017-07-22T03:56:32.913Z,82.20
2017-07-22T03:59:01.231Z,82.30
2017-07-22T04:01:28.634Z,82.30
2017-07-22T04:03:56.066Z,82.30
2017-07-22T04:06:23.522Z,82.20
2017-07-22T04:08:50.944Z,82.50
2017-07-22T04:11:18.369Z,82.60
2017-07-22T04:13:46.560Z,82.80
2017-07-22T04:16:13.997Z,82.70
2017-07-22T04:18:42.181Z,83.00
2017-07-22T04:21:09.622Z,83.00
2017-07-22T04:23:37.813Z,82.70
2017-07-22T04:26:05.238Z,82.70
2017-07-22T04:28:32.656Z,82.70
2017-07-22T04:31:00.080Z,82.80
2017-07-22T04:33:27.509Z,83.00
2017-07-22T04:35:54.928Z,83.10
2017-07-22T04:38:22.373Z,83.20
2017-07-22T04:40:49.803Z,83.20
2017-07-22T04:43:17.237Z,82.70
2017-07-22T04:45:44.668Z,82.60
2017-07-22T04:48:12.095Z,82.70
2017-07-22T04:50:39.521Z,82.80
2017-07-22T04:53:07.721Z,81.60
2017-07-22T04:55:35.147Z,81.60
2017-07-22T04:58:03.342Z,81.30
2017-07-22T05:00:30.765Z,81.30
2017-07-22T05:02:58.188Z,81.10
2017-07-22T05:05:25.613Z,81.00
2017-07-22T05:07:53.033Z,80.70
2017-07-22T05:10:21.252Z,81.40
2017-07-22T05:12:48.664Z,80.50
2017-07-22T05:15:16.856Z,80.10
2017-07-22T05:17:44.279Z,80.00
2017-07-22T05:20:11.700Z,80.60
2017-07-22T05:22:39.159Z,81.30
2017-07-22T05:25:06.599Z,81.30
2017-07-22T05:27:34.004Z,81.70
2017-07-22T05:30:02.197Z,84.10
2017-07-22T05:32:30.388Z,83.00
2017-07-22T05:34:57.808Z,83.00
2017-07-22T05:37:26.016Z,81.90
2017-07-22T05:39:53.437Z,81.90
2017-07-22T05:42:20.852Z,81.40
2017-07-22T05:44:48.324Z,80.80
2017-07-22T05:47:15.769Z,80.20
2017-07-22T05:49:43.168Z,80.20
2017-07-22T05:52:11.375Z,81.10
2017-07-22T05:54:38.797Z,81.00
2017-07-22T05:57:06.988Z,80.90
2017-07-22T05:59:34.403Z,80.40
2017-07-22T06:02:01.829Z,80.40
2017-07-22T06:04:29.257Z,80.00
2017-07-22T06:06:56.746Z,79.90
2017-07-22T06:09:24.190Z,79.40
2017-07-22T06:11:51.624Z,79.20
2017-07-22T06:14:19.037Z,78.80
2017-07-22T06:16:46.457Z,78.60
2017-07-22T06:19:13.877Z,78.30
2017-07-22T06:21:42.052Z,77.90
2017-07-22T06:24:10.245Z,78.00
2017-07-22T06:26:37.669Z,78.00
2017-07-22T06:29:05.093Z,78.00
2017-07-22T06:31:32.515Z,78.20
2017-07-22T06:33:59.932Z,78.10
2017-07-22T06:36:28.128Z,79.70
2017-07-22T06:38:55.548Z,79.60
2017-07-22T06:41:22.978Z,79.80
2017-07-22T06:43:50.397Z,79.80
2017-07-22T06:46:17.825Z,80.00
2017-07-22T06:48:45.237Z,80.30
2017-07-22T06:51:12.663Z,80.80
2017-07-22T06:53:40.084Z,83.20
2017-07-22T06:56:07.511Z,83.90
2017-07-22T06:58:34.929Z,83.90
2017-07-22T07:01:02.425Z,84.70
2017-07-22T07:03:29.894Z,84.60
2017-07-22T07:05:58.081Z,84.80
2017-07-22T07:08:25.513Z,84.70
2017-07-22T07:10:53.708Z,86.20
2017-07-22T07:13:21.134Z,85.10
2017-07-22T07:15:48.552Z,84.90
2017-07-22T07:18:15.996Z,85.50
2017-07-22T07:20:43.409Z,85.30
2017-07-22T07:23:11.625Z,86.20
2017-07-22T07:25:39.041Z,86.00
2017-07-22T07:28:07.225Z,86.10
2017-07-22T07:30:34.661Z,86.00
2017-07-22T07:33:02.078Z,86.70
2017-07-22T07:35:29.504Z,87.20
2017-07-22T07:37:56.937Z,87.50
2017-07-22T07:40:25.126Z,88.00
2017-07-22T07:42:52.552Z,88.00
2017-07-22T07:45:20.069Z,89.10
2017-07-22T07:47:47.485Z,89.20
2017-07-22T07:50:14.917Z,89.50
2017-07-22T07:52:42.328Z,90.10
2017-07-22T07:55:09.759Z,90.30
2017-07-22T07:57:37.944Z,92.20
2017-07-22T08:00:06.141Z,92.80
2017-07-22T08:02:33.573Z,92.70
2017-07-22T08:05:01.762Z,92.80
2017-07-22T08:07:29.178Z,92.90
2017-07-22T08:09:56.601Z,92.80
2017-07-22T08:12:24.029Z,92.70
2017-07-22T08:14:51.463Z,92.80
2017-07-22T08:17:19.656Z,91.60
2017-07-22T08:19:47.082Z,91.50
2017-07-22T08:22:14.505Z,91.50
2017-07-22T08:24:41.936Z,91.00
2017-07-22T08:27:09.373Z,91.10
2017-07-22T08:29:37.576Z,91.50
2017-07-22T08:32:05.000Z,91.40
2017-07-22T08:34:32.426Z,92.10
2017-07-22T08:37:00.628Z,93.10
2017-07-22T08:39:28.499Z,93.00
2017-07-22T08:41:56.681Z,93.80
2017-07-22T08:44:24.111Z,93.50
2017-07-22T08:46:51.532Z,93.30
2017-07-22T08:49:18.957Z,92.90
2017-07-22T08:51:46.376Z,92.50
2017-07-22T08:54:13.821Z,92.90
2017-07-22T08:56:41.229Z,92.20
2017-07-22T08:59:08.688Z,91.80
2017-07-22T09:01:36.108Z,92.00
2017-07-22T09:04:04.318Z,91.60
2017-07-22T09:06:31.751Z,91.60
2017-07-22T09:09:00.065Z,91.50
2017-07-22T09:11:27.486Z,91.50
2017-07-22T09:13:55.665Z,91.40
2017-07-22T09:16:23.155Z,91.30
2017-07-22T09:18:50.740Z,91.40
2017-07-22T09:21:18.249Z,91.30
2017-07-22T09:23:46.421Z,92.20
2017-07-22T09:26:13.869Z,92.20
2017-07-22T09:28:41.474Z,92.30
2017-07-22T09:31:08.968Z,92.50
2017-07-22T09:33:36.533Z,92.60
2017-07-22T09:36:03.953Z,92.40
2017-07-22T09:38:31.382Z,92.30
2017-07-22T09:40:58.830Z,92.00
2017-07-22T09:43:26.912Z,91.90
2017-07-22T09:45:54.361Z,91.70
2017-07-22T09:48:21.799Z,91.60
2017-07-22T09:50:49.977Z,91.40
2017-07-22T09:53:17.391Z,91.30
2017-07-22T09:55:44.813Z,91.70
2017-07-22T09:58:12.245Z,92.30
2017-07-22T10:00:39.681Z,92.70
2017-07-22T10:03:07.868Z,93.60
2017-07-22T10:05:35.301Z,93.60
2017-07-22T10:08:03.485Z,93.30
2017-07-22T10:10:30.917Z,93.30
2017-07-22T10:12:58.343Z,93.60
2017-07-22T10:15:25.777Z,92.80
2017-07-22T10:17:53.271Z,92.50
2017-07-22T10:20:20.695Z,91.70
2017-07-22T10:22:48.116Z,91.50
2017-07-22T10:25:16.300Z,91.00
2017-07-22T10:27:43.724Z,91.00
2017-07-22T10:30:11.147Z,91.40
2017-07-22T10:32:38.598Z,91.20
2017-07-22T10:35:06.008Z,91.20
2017-07-22T10:37:34.218Z,91.20
2017-07-22T10:40:01.661Z,91.20
2017-07-22T10:42:29.141Z,91.10
2017-07-22T10:44:56.595Z,91.00
2017-07-22T10:47:24.031Z,91.30
2017-07-22T10:49:51.458Z,90.80
2017-07-22T10:52:19.651Z,87.20
2017-07-22T10:54:47.076Z,87.00
2017-07-22T10:57:14.530Z,86.40
2017-07-22T10:59:41.963Z,87.10
2017-07-22T11:02:09.406Z,86.00
2017-07-22T11:04:36.823Z,83.90
2017-07-22T11:07:04.252Z,82.70
2017-07-22T11:09:31.680Z,83.30
2017-07-22T11:11:59.115Z,82.00
2017-07-22T11:14:26.584Z,84.10
2017-07-22T11:16:53.997Z,85.20
2017-07-22T11:19:21.432Z,86.30
2017-07-22T11:21:49.627Z,86.70
2017-07-22T11:24:17.817Z,85.40
2017-07-22T11:26:45.245Z,85.20
2017-07-22T11:29:13.462Z,86.80
2017-07-22T11:31:40.878Z,85.90
2017-07-22T11:34:09.077Z,81.30
2017-07-22T11:36:36.506Z,81.30
2017-07-22T11:39:04.697Z,81.80
2017-07-22T11:41:32.126Z,81.80
2017-07-22T11:44:00.348Z,76.00
2017-07-22T11:46:27.768Z,76.00
2017-07-22T11:48:55.969Z,76.20
2017-07-22T11:51:23.391Z,76.20
2017-07-22T11:53:51.591Z,73.70
2017-07-22T11:56:19.008Z,73.70
2017-07-22T11:58:46.452Z,73.90
2017-07-22T12:01:13.870Z,75.90
2017-07-22T12:03:41.295Z,76.40
2017-07-22T12:06:09.526Z,76.00
2017-07-22T12:08:36.953Z,75.80
2017-07-22T12:11:04.368Z,73.00
2017-07-22T12:13:32.564Z,71.20
2017-07-22T12:16:00.750Z,71.80
2017-07-22T12:18:28.182Z,71.70
2017-07-22T12:20:56.378Z,69.30
2017-07-22T12:23:23.793Z,69.30
2017-07-22T12:25:51.994Z,69.40
2017-07-22T12:28:19.425Z,68.50
2017-07-22T12:30:46.851Z,68.60
2017-07-22T12:33:14.330Z,67.00
2017-07-22T12:35:41.770Z,61.70
2017-07-22T12:38:09.215Z,58.20
2017-07-22T12:40:36.650Z,58.00
2017-07-22T12:43:04.866Z,58.10
2017-07-22T12:45:32.296Z,58.00
2017-07-22T12:47:59.728Z,60.60
2017-07-22T12:50:27.933Z,62.20
2017-07-22T12:52:55.416Z,62.20
2017-07-22T12:55:22.874Z,63.60
2017-07-22T12:57:50.329Z,63.30
2017-07-22T13:00:17.761Z,61.90
2017-07-22T13:02:45.193Z,60.50
2017-07-22T13:05:12.619Z,59.50
2017-07-22T13:07:40.046Z,59.80
2017-07-22T13:10:07.476Z,56.50
2017-07-22T13:12:34.914Z,56.90
2017-07-22T13:15:03.130Z,50.90
2017-07-22T13:17:30.594Z,50.80
2017-07-22T13:19:58.013Z,50.80
2017-07-22T13:22:25.441Z,47.60
2017-07-22T13:24:52.888Z,45.50
2017-07-22T13:27:20.409Z,41.00
2017-07-22T13:29:47.950Z,43.60
2017-07-22T13:32:15.369Z,44.10
2017-07-22T13:34:43.594Z,42.20
2017-07-22T13:37:11.000Z,42.00
2017-07-22T13:39:38.426Z,41.00
2017-07-22T13:42:05.971Z,39.80
2017-07-22T13:44:33.397Z,38.40
2017-07-22T13:47:00.821Z,35.50
2017-07-22T13:49:28.256Z,39.80
2017-07-22T13:51:56.450Z,46.10
2017-07-22T13:54:23.925Z,46.00
2017-07-22T13:56:51.328Z,47.80
2017-07-22T13:59:18.847Z,48.30
2017-07-22T14:01:46.300Z,44.10
2017-07-22T14:04:13.727Z,43.40
2017-07-22T14:06:41.156Z,41.40
2017-07-22T14:09:08.600Z,40.60
2017-07-22T14:11:36.057Z,42.40
2017-07-22T14:14:03.492Z,45.20
2017-07-22T14:16:30.942Z,43.30
2017-07-22T14:18:58.371Z,42.70
2017-07-22T14:21:25.787Z,41.70
2017-07-22T14:23:53.233Z,38.80
2017-07-22T14:26:20.641Z,36.20
2017-07-22T14:28:48.078Z,36.00
2017-07-22T14:31:16.291Z,34.20
2017-07-22T14:33:43.704Z,34.10
2017-07-22T14:36:11.124Z,39.00
2017-07-22T14:38:38.542Z,41.70
2017-07-22T14:41:05.976Z,46.00
2017-07-22T14:43:33.396Z,50.00
2017-07-22T14:46:00.913Z,51.20
2017-07-22T14:48:28.328Z,51.10
2017-07-22T14:50:56.520Z,49.50
2017-07-22T14:53:23.945Z,49.50
2017-07-22T14:55:51.388Z,46.50
2017-07-22T14:58:18.810Z,46.00
2017-07-22T15:00:46.247Z,48.60
2017-07-22T15:03:13.677Z,48.10
2017-07-22T15:05:41.905Z,46.50
2017-07-22T15:08:09.361Z,46.50
2017-07-22T15:10:36.790Z,46.70
2017-07-22T15:13:04.200Z,46.60
2017-07-22T15:15:31.744Z,47.30
2017-07-22T15:17:59.182Z,50.80
2017-07-22T15:20:26.597Z,50.90
2017-07-22T15:22:54.792Z,50.90
2017-07-22T15:25:22.206Z,50.90
2017-07-22T15:27:49.623Z,50.40
2017-07-22T15:30:17.079Z,52.80
2017-07-22T15:32:44.530Z,53.00
2017-07-22T15:35:11.944Z,55.50
2017-07-22T15:37:40.137Z,56.30
2017-07-22T15:40:07.572Z,56.70
2017-07-22T15:42:35.756Z,56.80
2017-07-22T15:45:03.170Z,56.20
2017-07-22T15:47:30.621Z,57.20
2017-07-22T15:49:58.050Z,57.60
2017-07-22T15:52:25.447Z,57.50
2017-07-22T15:54:52.876Z,57.20
2017-07-22T15:57:20.325Z,57.10
2017-07-22T15:59:47.731Z,56.90
2017-07-22T16:02:15.151Z,55.00
2017-07-22T16:04:42.627Z,52.40
2017-07-22T16:07:10.046Z,51.70
2017-07-22T16:09:37.467Z,50.10
2017-07-22T16:12:05.675Z,50.00
2017-07-22T16:14:33.088Z,49.90
2017-07-22T16:17:00.527Z,51.20
2017-07-22T16:19:27.953Z,53.60
2017-07-22T16:21:55.378Z,56.00
2017-07-22T16:24:22.910Z,57.70
2017-07-22T16:26:51.099Z,59.70
2017-07-22T16:29:18.520Z,59.60
2017-07-22T16:31:46.044Z,60.90
2017-07-22T16:34:13.492Z,62.20
2017-07-22T16:36:41.009Z,63.80
2017-07-22T16:39:08.525Z,64.50
2017-07-22T16:41:35.931Z,64.90
2017-07-22T16:44:04.142Z,66.00
2017-07-22T16:46:31.543Z,65.90
2017-07-22T16:48:59.732Z,66.40
2017-07-22T16:51:27.948Z,66.90
2017-07-22T16:53:55.352Z,66.80
2017-07-22T16:56:23.543Z,68.20
2017-07-22T16:58:50.964Z,68.20
2017-07-22T17:01:18.386Z,68.70
2017-07-22T17:03:45.814Z,69.00
2017-07-22T17:06:13.237Z,69.00
2017-07-22T17:08:40.683Z,69.50
2017-07-22T17:11:08.109Z,70.40
2017-07-22T17:13:35.538Z,71.80
2017-07-22T17:16:02.986Z,72.30
2017-07-22T17:18:31.178Z,72.50
2017-07-22T17:20:58.614Z,72.50
2017-07-22T17:23:26.837Z,73.30
2017-07-22T17:25:54.279Z,73.20
2017-07-22T17:28:21.701Z,73.00
2017-07-22T17:30:49.140Z,73.20
2017-07-22T17:33:16.563Z,73.40
2017-07-22T17:35:43.980Z,73.40
2017-07-22T17:38:11.434Z,73.20
2017-07-22T17:40:38.852Z,73.40
2017-07-22T17:43:06.284Z,73.10
2017-07-22T17:45:33.721Z,73.40
2017-07-22T17:48:01.148Z,73.70
2017-07-22T17:50:28.580Z,74.10
2017-07-22T17:52:56.010Z,74.80
2017-07-22T17:55:23.477Z,75.20
2017-07-22T17:57:51.004Z,75.50
2017-07-22T18:00:18.453Z,75.50
2017-07-22T18:02:46.025Z,75.40
2017-07-22T18:05:13.449Z,75.80
2017-07-22T18:07:40.900Z,76.50
2017-07-22T18:10:08.361Z,77.00
2017-07-22T18:12:35.792Z,77.50
2017-07-22T18:15:03.216Z,78.00
2017-07-22T18:17:31.412Z,78.60
2017-07-22T18:19:58.844Z,78.60
2017-07-22T18:22:26.269Z,78.80
2017-07-22T18:24:53.708Z,79.00
2017-07-22T18:27:21.138Z,79.20
2017-07-22T18:29:48.566Z,79.10
2017-07-22T18:32:15.995Z,78.70
2017-07-22T18:34:43.453Z,77.50
2017-07-22T18:37:10.903Z,77.10
2017-07-22T18:39:38.348Z,77.20
2017-07-22T18:42:05.801Z,78.00
2017-07-22T18:44:33.243Z,78.90
2017-07-22T18:47:00.661Z,79.50
2017-07-22T18:49:28.858Z,80.30
2017-07-22T18:51:56.280Z,80.20
2017-07-22T18:54:23.726Z,80.90
2017-07-22T18:56:51.162Z,81.40
2017-07-22T18:59:18.598Z,81.70
2017-07-22T19:01:46.026Z,82.10
2017-07-22T19:04:13.450Z,82.50
2017-07-22T19:06:40.885Z,82.70
2017-07-22T19:09:08.357Z,83.10
2017-07-22T19:11:35.787Z,83.00
2017-07-22T19:14:03.222Z,83.10
2017-07-22T19:16:30.669Z,83.70
2017-07-22T19:18:58.101Z,83.60
2017-07-22T19:21:26.294Z,83.50
2017-07-22T19:23:53.744Z,83.40
2017-07-22T19:26:21.942Z,83.80
2017-07-22T19:28:49.370Z,83.80
2017-07-22T19:31:16.820Z,84.00
2017-07-22T19:33:44.254Z,84.20
2017-07-22T19:36:11.684Z,84.30
2017-07-22T19:38:39.132Z,84.80
2017-07-22T19:41:06.854Z,84.90
2017-07-22T19:43:35.082Z,85.50
2017-07-22T19:46:02.513Z,85.50
2017-07-22T19:48:29.940Z,85.70
2017-07-22T19:50:58.156Z,86.10
2017-07-22T19:53:26.019Z,86.10
2017-07-22T19:55:53.443Z,86.80
2017-07-22T19:58:20.884Z,86.60
2017-07-22T20:00:49.090Z,87.20
2017-07-22T20:03:16.544Z,87.10
2017-07-22T20:05:43.965Z,87.00
2017-07-22T20:08:12.165Z,87.60
2017-07-22T20:10:39.605Z,87.50
2017-07-22T20:13:07.827Z,87.90
2017-07-22T20:15:35.290Z,87.90
2017-07-22T20:18:02.763Z,87.90
2017-07-22T20:20:30.197Z,88.10
2017-07-22T20:22:57.621Z,88.20
2017-07-22T20:25:25.501Z,88.50
2017-07-22T20:27:53.040Z,88.50
2017-07-22T20:30:20.477Z,88.80
2017-07-22T20:32:48.727Z,89.20
2017-07-22T20:35:16.175Z,89.20
2017-07-22T20:37:43.613Z,89.20
2017-07-22T20:40:11.042Z,89.60
2017-07-22T20:42:38.477Z,90.00
2017-07-22T20:45:06.674Z,90.20
2017-07-22T20:47:34.109Z,90.20
2017-07-22T20:50:02.313Z,90.50
2017-07-22T20:52:29.750Z,90.40
2017-07-22T20:54:57.940Z,90.60
2017-07-22T20:57:25.378Z,90.60
2017-07-22T20:59:53.573Z,90.80
2017-07-22T21:02:21.219Z,90.70
2017-07-22T21:04:48.702Z,90.90
2017-07-22T21:07:16.493Z,90.90
2017-07-22T21:09:44.215Z,91.00
2017-07-22T21:12:11.644Z,91.10
2017-07-22T21:14:40.100Z,91.20
2017-07-22T21:17:07.769Z,91.20
2017-07-22T21:19:35.406Z,91.80
2017-07-22T21:22:03.369Z,91.30
2017-07-22T21:24:33.201Z,91.50
2017-07-22T21:27:00.900Z,91.60
2017-07-22T21:29:28.637Z,91.80
2017-07-22T21:31:57.755Z,91.90
2017-07-22T21:34:25.511Z,92.00
2017-07-22T21:36:53.282Z,92.00
2017-07-22T21:39:21.693Z,91.90
2017-07-22T21:41:49.124Z,91.90
2017-07-22T21:44:16.595Z,91.90
2017-07-22T21:46:44.033Z,91.80
2017-07-22T21:49:11.481Z,91.70
2017-07-22T21:51:38.899Z,91.70
2017-07-22T21:54:06.328Z,91.80
2017-07-22T21:56:33.784Z,91.70
2017-07-22T21:59:01.993Z,92.10
2017-07-22T22:01:29.427Z,91.70
2017-07-22T22:03:57.636Z,91.80
2017-07-22T22:06:25.193Z,91.80
2017-07-22T22:08:52.714Z,91.70
2017-07-22T22:11:20.192Z,91.60
2017-07-22T22:13:47.640Z,91.60
2017-07-22T22:16:15.074Z,91.60
2017-07-22T22:18:42.501Z,91.60
2017-07-22T22:21:09.949Z,91.50
2017-07-22T22:23:37.459Z,91.60
2017-07-22T22:26:05.657Z,91.50
2017-07-22T22:28:33.134Z,91.40
2017-07-22T22:31:00.545Z,91.50
2017-07-22T22:33:27.987Z,91.50
2017-07-22T22:35:56.226Z,91.80
2017-07-22T22:38:23.641Z,91.80
2017-07-22T22:40:51.087Z,92.00
2017-07-22T22:43:18.576Z,92.00
2017-07-22T22:45:46.048Z,92.20
2017-07-22T22:48:13.481Z,92.20
2017-07-22T22:50:40.943Z,92.30
2017-07-22T22:53:08.367Z,92.30
2017-07-22T22:55:36.553Z,92.40
2017-07-22T22:58:03.988Z,92.40
2017-07-22T23:00:32.196Z,92.50
2017-07-22T23:02:59.617Z,92.50
2017-07-22T23:05:27.820Z,92.80
2017-07-22T23:07:55.342Z,92.80
2017-07-22T23:10:23.549Z,92.70
2017-07-22T23:12:50.976Z,93.00
2017-07-22T23:15:19.185Z,93.10
2017-07-22T23:17:46.607Z,93.00
2017-07-22T23:20:14.805Z,93.30
2017-07-22T23:22:42.246Z,93.20
2017-07-22T23:25:10.461Z,93.50
2017-07-22T23:27:38.683Z,93.40
2017-07-22T23:30:06.882Z,94.10
2017-07-22T23:32:34.318Z,93.80
2017-07-22T23:35:02.531Z,93.80
2017-07-22T23:37:29.950Z,93.80
2017-07-22T23:40:19.485Z,94.10
2017-07-22T23:42:46.904Z,94.10
2017-07-22T23:45:14.332Z,94.20
2017-07-22T23:47:41.753Z,94.30
2017-07-22T23:50:09.178Z,94.40
2017-07-22T23:52:36.616Z,94.50
2017-07-22T23:55:04.058Z,94.70
2017-07-22T23:57:32.265Z,95.00
2017-07-22T23:59:59.690Z,95.00
